Terminal Aerodrome Forecast
Issued by NWS

Home | Current Version | Previous Version | Text Only | Print | Product List | Glossary On
Versions: 1 2 3 4 5 6 7 8 9 10 11 12 13 14 15 16 17
000
FTUS43 KGRR 211520 AAB
TAFAZO
TAF AMD
KAZO 211520Z 2115/2212 19008KT 5SM -SHRA BR OVC035
      TEMPO 2116/2118 4SM SHRA BR OVC015
     FM211800 25007KT P6SM OVC015
     FM212030 24007KT P6SM SCT015 SCT250
     FM220600 22006KT 3SM BR OVC008=

USA.gov is the U.S. government's official web portal to all federal, state and local government web resources and services.